Terminal Aerodrome Forecast
Issued by NWS

Home | Current Version | Previous Version | Text Only | Print | Product List | Glossary On
Versions: 1 2 3 4 5 6 7 8 9 10 11 12 13 14 15 16 17 18 19 20 21 22 23 24
015
FTUS41 KBUF 250919 AAA
TAFJHW
TAF AMD
KJHW 250919Z 2509/2606 20012G20KT P6SM BKN200 WS015/23050KT
     FM251300 21010KT P6SM BKN040
     FM251500 22010KT P6SM BKN025
     FM251700 28010KT P6SM VCSH OVC007
     FM252200 30010KT P6SM VCSH OVC015
     FM260400 31010KT 5SM -SHSN OVC015
      AMD LTD TO CLD VIS AND WIND=

USA.gov is the U.S. government's official web portal to all federal, state and local government web resources and services.